createdAt,value
2022-09-07T12:59:29.510Z,41.74
2022-09-07T12:59:44.744Z,41.74
2022-09-07T13:00:30.169Z,41.75
2022-09-07T13:01:07.311Z,41.78
2022-09-07T13:01:33.699Z,41.78
2022-09-07T13:01:52.426Z,41.78
2022-09-07T13:02:06.541Z,41.81
2022-09-07T13:02:22.368Z,41.81
2022-09-07T13:02:57.018Z,41.83
2022-09-07T13:03:49.606Z,41.83
2022-09-07T13:03:51.607Z,41.85
2022-09-07T13:03:58.646Z,41.87
2022-09-07T13:04:05.065Z,41.87
2022-09-07T13:04:16.895Z,41.89
2022-09-07T13:04:31.754Z,41.9
2022-09-07T13:05:03.398Z,41.93
2022-09-07T13:05:19.825Z,41.93
2022-09-07T13:05:34.108Z,41.95
2022-09-07T13:05:53.458Z,41.96
2022-09-07T13:07:02.391Z,42.02
2022-09-07T13:07:03.133Z,42.02
2022-09-07T13:07:15.212Z,42.06
2022-09-07T13:07:27.371Z,42.04
2022-09-07T13:07:43.354Z,42.05
2022-09-07T13:08:08.821Z,42.09
2022-09-07T13:08:18.829Z,42.07
2022-09-07T13:08:32.177Z,42.09
2022-09-07T13:08:47.071Z,42.12
2022-09-07T13:09:04.178Z,42.13
2022-09-07T13:09:18.378Z,42.14
2022-09-07T13:09:34.031Z,42.13
2022-09-07T13:09:53.174Z,42.16
2022-09-07T13:10:06.747Z,42.2
2022-09-07T13:10:26.173Z,42.2
2022-09-07T13:10:38.732Z,42.22
2022-09-07T13:10:53.586Z,42.25
2022-09-07T13:11:13.222Z,42.27
2022-09-07T13:11:28.427Z,42.28
2022-09-07T13:11:45.673Z,42.32
2022-09-07T13:11:57.705Z,42.34
2022-09-07T13:12:52.965Z,42.35
2022-09-07T13:12:53.304Z,42.38
2022-09-07T13:12:53.584Z,42.38
2022-09-07T13:13:02.635Z,42.42
2022-09-07T13:14:01.892Z,42.42
2022-09-07T13:14:03.656Z,42.46
2022-09-07T13:14:04.965Z,42.45
2022-09-07T13:14:09.489Z,42.47
2022-09-07T13:14:23.782Z,42.49
2022-09-07T13:14:38.983Z,42.5
2022-09-07T13:14:57.085Z,42.52
2022-09-07T13:15:23.859Z,42.54
2022-09-07T13:15:30.322Z,42.56
2022-09-07T13:15:43.502Z,42.56
2022-09-07T13:16:00.183Z,42.59
2022-09-07T13:16:18.072Z,42.59
2022-09-07T13:17:15.547Z,42.61
2022-09-07T13:17:16.681Z,42.63
2022-09-07T13:17:17.537Z,42.67
2022-09-07T13:17:20.163Z,42.66
2022-09-07T13:17:35.033Z,42.66
2022-09-07T13:17:49.561Z,42.69
2022-09-07T13:18:05.953Z,42.69
2022-09-07T13:18:22.904Z,42.72
2022-09-07T13:18:37.872Z,42.73
2022-09-07T13:18:53.196Z,42.75
2022-09-07T13:19:09.089Z,42.75
2022-09-07T13:19:25.887Z,42.75
2022-09-07T13:19:42.194Z,42.77
2022-09-07T13:19:59.234Z,42.79
2022-09-07T13:20:14.474Z,42.81
2022-09-07T13:20:34.802Z,42.82
2022-09-07T13:20:49.014Z,42.86
2022-09-07T13:21:02.310Z,42.84
2022-09-07T13:21:17.616Z,42.87
2022-09-07T13:21:33.348Z,42.88
2022-09-07T13:21:53.110Z,42.9
2022-09-07T13:22:10.053Z,42.91
2022-09-07T13:22:22.895Z,42.95
2022-09-07T13:22:37.096Z,42.95
2022-09-07T13:22:54.055Z,42.95
2022-09-07T13:23:09.107Z,42.97
2022-09-07T13:23:43.590Z,42.98
2022-09-07T13:23:59.563Z,43.01
2022-09-07T13:25:01.256Z,43.05
2022-09-07T13:25:17.952Z,43.09
2022-09-07T13:25:38.262Z,43.09
2022-09-07T13:25:51.140Z,43.09
2022-09-07T13:26:05.092Z,43.1
2022-09-07T13:26:23.657Z,43.13
2022-09-07T13:26:37.211Z,43.13
2022-09-07T13:26:55.783Z,43.16
2022-09-07T13:27:10.040Z,43.16
2022-09-07T13:27:25.326Z,43.16
2022-09-07T13:27:43.503Z,43.16
2022-09-07T13:27:58.845Z,43.17
2022-09-07T13:28:15.982Z,43.19
2022-09-07T13:28:31.298Z,43.19
2022-09-07T13:28:49.799Z,43.2
2022-09-07T13:29:02.309Z,43.22
2022-09-07T13:29:17.760Z,43.21
2022-09-07T13:29:33.929Z,43.23
2022-09-07T13:29:51.887Z,43.23
2022-09-07T13:30:07.308Z,43.24
2022-09-07T13:30:21.126Z,43.24
2022-09-07T13:30:41.368Z,43.24
2022-09-07T13:30:55.457Z,43.25
2022-09-07T13:31:09.844Z,43.26
2022-09-07T13:31:25.638Z,43.28
2022-09-07T13:31:41.585Z,43.28
2022-09-07T13:31:57.286Z,43.29
2022-09-07T13:32:13.794Z,43.29
2022-09-07T13:33:08.708Z,43.31
2022-09-07T13:33:09.028Z,43.33
2022-09-07T13:33:16.869Z,43.29
2022-09-07T13:33:33.608Z,43.29
2022-09-07T13:33:51.756Z,43.31
2022-09-07T13:34:07.629Z,43.31
2022-09-07T13:34:26.188Z,43.34
2022-09-07T13:34:39.042Z,43.36
2022-09-07T13:34:55.554Z,43.36
2022-09-07T13:35:25.443Z,43.39
2022-09-07T13:35:41.770Z,43.38
2022-09-07T13:35:58.920Z,43.4
2022-09-07T13:36:14.192Z,43.4
2022-09-07T13:36:29.541Z,43.43
2022-09-07T13:36:45.222Z,43.42
2022-09-07T13:37:02.974Z,43.44
2022-09-07T13:37:18.995Z,43.44
2022-09-07T13:37:35.328Z,43.45
2022-09-07T13:37:50.668Z,43.47
2022-09-07T13:38:05.227Z,43.47
2022-09-07T13:38:36.795Z,43.42
2022-09-07T13:38:53.546Z,43.46
2022-09-07T13:39:08.986Z,43.47
2022-09-07T13:39:27.316Z,43.38
2022-09-07T13:39:45.104Z,43.42
2022-09-07T13:40:14.034Z,43.49
2022-09-07T13:40:30.144Z,43.48
2022-09-07T13:40:47.747Z,43.42
2022-09-07T13:41:01.130Z,43.49
2022-09-07T13:41:19.298Z,43.51
2022-09-07T13:41:32.750Z,43.56
2022-09-07T13:41:49.576Z,43.56
2022-09-07T13:42:06.281Z,43.57
2022-09-07T13:42:23.384Z,43.59
2022-09-07T13:42:37.546Z,43.59
2022-09-07T13:42:56.652Z,43.61
2022-09-07T13:43:09.844Z,43.63
2022-09-07T13:43:25.220Z,43.63
2022-09-07T13:43:41.885Z,43.65
2022-09-07T13:43:57.970Z,43.65
2022-09-07T13:44:13.754Z,43.66
2022-09-07T13:44:28.730Z,43.65
2022-09-07T13:44:45.794Z,43.67
2022-09-07T13:45:03.322Z,43.63
2022-09-07T13:45:18.215Z,43.67
2022-09-07T13:45:33.079Z,43.7
2022-09-07T13:46:07.194Z,43.74
2022-09-07T13:46:21.158Z,43.73
2022-09-07T13:46:38.494Z,43.76
2022-09-07T13:46:53.233Z,43.76
2022-09-07T13:47:26.425Z,43.81
2022-09-07T13:47:41.942Z,43.81
2022-09-07T13:47:56.846Z,43.83
2022-09-07T13:48:15.227Z,43.86
2022-09-07T13:48:29.484Z,43.87
2022-09-07T13:48:44.437Z,43.87
2022-09-07T13:49:02.043Z,43.9
2022-09-07T13:49:16.960Z,43.9
2022-09-07T13:49:34.844Z,43.91
2022-09-07T13:49:53.635Z,43.92
2022-09-07T13:50:05.556Z,43.93
2022-09-07T13:50:25.817Z,43.92
2022-09-07T13:50:53.661Z,43.96
2022-09-07T13:51:13.009Z,43.97
2022-09-07T13:51:28.408Z,43.99
2022-09-07T13:51:40.391Z,44
2022-09-07T13:51:57.895Z,44.02
2022-09-07T13:52:12.781Z,44.04
2022-09-07T13:52:29.371Z,44.05
2022-09-07T13:52:45.055Z,44.08
2022-09-07T13:53:05.664Z,44.1
2022-09-07T13:53:18.582Z,44.1
2022-09-07T13:53:36.164Z,44.12
2022-09-07T13:53:53.488Z,44.14
2022-09-07T13:54:06.054Z,44.16
2022-09-07T13:54:21.648Z,44.15
2022-09-07T13:54:38.604Z,44.18
2022-09-07T13:54:57.327Z,44.22
2022-09-07T13:55:33.224Z,44.22
2022-09-07T13:55:48.241Z,44.24
2022-09-07T13:56:01.999Z,44.25
2022-09-07T13:56:17.127Z,44.26
2022-09-07T13:56:31.690Z,44.28
2022-09-07T13:56:45.146Z,44.29
2022-09-07T13:57:01.093Z,44.28
2022-09-07T13:57:17.978Z,44.3
2022-09-07T13:57:32.583Z,44.3
2022-09-07T13:57:49.635Z,44.31
2022-09-07T13:58:04.886Z,44.32
2022-09-07T13:58:22.093Z,44.32
2022-09-07T13:58:37.362Z,44.34
2022-09-07T13:58:53.991Z,44.35
2022-09-07T13:59:09.800Z,44.35
2022-09-07T13:59:24.667Z,44.37
2022-09-07T13:59:41.371Z,44.38
2022-09-07T13:59:58.688Z,44.4
2022-09-07T14:00:15.210Z,44.4
2022-09-07T14:00:31.031Z,44.41
2022-09-07T14:00:52.545Z,44.41
2022-09-07T14:01:08.567Z,44.41
2022-09-07T14:01:25.227Z,44.42
2022-09-07T14:01:54.519Z,44.46
2022-09-07T14:02:10.807Z,44.43
2022-09-07T14:02:27.859Z,44.45
2022-09-07T14:02:40.355Z,44.47
2022-09-07T14:02:57.853Z,44.47
2022-09-07T14:03:16.063Z,44.49
2022-09-07T14:03:43.873Z,44.51
2022-09-07T14:04:15.539Z,44.52
2022-09-07T14:04:36.020Z,44.53
2022-09-07T14:05:06.361Z,44.55
2022-09-07T14:05:18.941Z,44.55
2022-09-07T14:05:35.802Z,44.57
2022-09-07T14:05:49.342Z,44.57
2022-09-07T14:06:07.097Z,44.57
2022-09-07T14:06:21.402Z,44.55
2022-09-07T14:06:37.807Z,44.58
2022-09-07T14:06:53.311Z,44.61
2022-09-07T14:07:10.745Z,44.61
2022-09-07T14:07:24.992Z,44.61
2022-09-07T14:07:41.604Z,44.59
2022-09-07T14:07:58.653Z,44.63
2022-09-07T14:08:15.525Z,44.64
2022-09-07T14:08:29.565Z,44.64
2022-09-07T14:08:44.575Z,44.65
2022-09-07T14:09:03.881Z,44.65
2022-09-07T14:09:19.442Z,44.65
2022-09-07T14:09:33.927Z,44.66
2022-09-07T14:09:52.826Z,44.69
2022-09-07T14:10:07.115Z,44.69
2022-09-07T14:10:21.801Z,44.7
2022-09-07T14:10:36.804Z,44.71
2022-09-07T14:10:56.354Z,44.72
2022-09-07T14:11:09.393Z,44.72
2022-09-07T14:11:29.429Z,44.74
2022-09-07T14:11:43.934Z,44.75
2022-09-07T14:11:57.275Z,44.75
2022-09-07T14:12:13.493Z,44.77
2022-09-07T14:12:31.334Z,44.78
2022-09-07T14:12:45.300Z,44.77
2022-09-07T14:13:01.639Z,44.77
2022-09-07T14:13:17.821Z,44.78
2022-09-07T14:13:33.953Z,44.78
2022-09-07T14:13:50.668Z,44.78
2022-09-07T14:14:04.957Z,44.78
2022-09-07T14:14:24.776Z,44.8
2022-09-07T14:14:37.986Z,44.78
2022-09-07T14:14:53.857Z,44.78
2022-09-07T14:15:10.525Z,44.8
2022-09-07T14:15:26.263Z,44.8
2022-09-07T14:15:41.343Z,44.83
2022-09-07T14:15:58.445Z,44.83
2022-09-07T14:16:16.564Z,44.85
2022-09-07T14:16:29.382Z,44.85
2022-09-07T14:16:48.403Z,44.88
2022-09-07T14:17:01.301Z,44.88
2022-09-07T14:17:20.023Z,44.89
2022-09-07T14:17:34.296Z,44.88
2022-09-07T14:17:49.331Z,44.9
2022-09-07T14:18:05.659Z,44.92
2022-09-07T14:18:22.233Z,44.92
2022-09-07T14:18:39.436Z,44.9
2022-09-07T14:18:55.737Z,44.94
2022-09-07T14:19:10.891Z,44.91
2022-09-07T14:19:27.636Z,44.94
2022-09-07T14:19:41.916Z,44.92
2022-09-07T14:19:57.538Z,44.94
2022-09-07T14:20:13.672Z,44.96
2022-09-07T14:20:30.740Z,44.94
2022-09-07T14:20:46.263Z,44.98
2022-09-07T14:21:02.584Z,44.96
2022-09-07T14:21:17.626Z,44.96
2022-09-07T14:21:33.724Z,44.97
2022-09-07T14:21:52.415Z,44.98
2022-09-07T14:22:21.372Z,44.98
2022-09-07T14:22:41.388Z,44.98
2022-09-07T14:22:54.313Z,44.99
2022-09-07T14:23:10.038Z,45
2022-09-07T14:23:24.694Z,45
2022-09-07T14:23:41.544Z,45.01
2022-09-07T14:23:57.282Z,45.02
2022-09-07T14:24:16.837Z,45.02
2022-09-07T14:24:29.784Z,45.02
2022-09-07T14:24:50.766Z,44.97
2022-09-07T14:25:07.514Z,44.98
2022-09-07T14:25:19.733Z,44.97
2022-09-07T14:26:16.663Z,44.96
2022-09-07T14:26:17.188Z,45.01
2022-09-07T14:26:22.178Z,44.98
2022-09-07T14:26:37.277Z,45
2022-09-07T14:27:15.517Z,45
2022-09-07T14:27:29.164Z,45
2022-09-07T14:27:47.528Z,45
2022-09-07T14:28:03.972Z,45.02
2022-09-07T14:28:19.126Z,45.02
2022-09-07T14:28:33.255Z,45.02
2022-09-07T14:28:48.914Z,45.02
2022-09-07T14:29:04.037Z,45.02
2022-09-07T14:29:18.383Z,45.04
2022-09-07T14:29:35.097Z,45.04
2022-09-07T14:30:10.723Z,45.04
2022-09-07T14:30:37.490Z,45.01
2022-09-07T14:30:57.734Z,45
2022-09-07T14:31:12.057Z,45.04
2022-09-07T14:31:27.624Z,45.05
2022-09-07T14:31:46.533Z,45.04
2022-09-07T14:32:01.527Z,45.04
2022-09-07T14:32:15.253Z,45.05
2022-09-07T14:32:31.589Z,45.04
2022-09-07T14:32:46.777Z,45.05
2022-09-07T14:33:02.016Z,45.08
2022-09-07T14:33:19.249Z,45.07
2022-09-07T14:33:33.181Z,45.08
2022-09-07T14:33:50.031Z,45.1
2022-09-07T14:34:08.127Z,45.09
2022-09-07T14:34:24.186Z,45.1
2022-09-07T14:34:40.059Z,45.09
2022-09-07T14:34:54.268Z,45.09
2022-09-07T14:35:09.181Z,45.1
2022-09-07T14:35:29.025Z,45.1
2022-09-07T14:35:41.841Z,45.1
2022-09-07T14:36:17.818Z,45.1
2022-09-07T14:36:39.276Z,45.12
2022-09-07T14:36:44.297Z,45.1
2022-09-07T14:36:46.391Z,45.12
2022-09-07T14:37:02.395Z,45.11
2022-09-07T14:37:21.399Z,45.06
2022-09-07T14:37:34.805Z,45.08
2022-09-07T14:37:49.765Z,45.08
2022-09-07T14:38:07.169Z,45.04
2022-09-07T14:39:04.721Z,45.11
2022-09-07T14:39:05.494Z,45.12
2022-09-07T14:39:09.228Z,45.12
2022-09-07T14:39:25.540Z,45.13
2022-09-07T14:39:41.552Z,45.13
2022-09-07T14:39:57.661Z,45.15
2022-09-07T14:40:12.393Z,45.15
2022-09-07T14:40:30.048Z,45.16
2022-09-07T14:40:48.235Z,45.15
2022-09-07T14:41:01.756Z,45.16
2022-09-07T14:41:17.465Z,45.17
2022-09-07T14:41:37.691Z,45.19
2022-09-07T14:41:52.024Z,45.19
2022-09-07T14:42:07.733Z,45.18
2022-09-07T14:42:22.935Z,45.17
2022-09-07T14:42:39.093Z,45.17
2022-09-07T14:42:54.593Z,45.14
2022-09-07T14:43:08.448Z,45.16
2022-09-07T14:43:41.016Z,45.19
2022-09-07T14:43:58.182Z,45.17
2022-09-07T14:44:12.815Z,45.16
2022-09-07T14:44:30.519Z,45.15
2022-09-07T14:44:45.370Z,45.15
2022-09-07T14:45:01.287Z,45.18
2022-09-07T14:45:18.331Z,45.2
2022-09-07T14:45:34.332Z,45.22
2022-09-07T14:45:49.573Z,45.23
2022-09-07T14:46:05.050Z,45.24
2022-09-07T14:46:22.593Z,45.23
2022-09-07T14:46:38.075Z,45.27
2022-09-07T14:46:56.549Z,45.26
2022-09-07T14:47:09.748Z,45.27
2022-09-07T14:47:25.544Z,45.28
2022-09-07T14:47:40.956Z,45.28
2022-09-07T14:47:58.201Z,45.28
2022-09-07T14:48:13.441Z,45.3
2022-09-07T14:48:32.226Z,45.32
2022-09-07T14:48:47.601Z,45.32
2022-09-07T14:49:00.989Z,45.33
2022-09-07T14:49:18.163Z,45.33
2022-09-07T14:49:32.438Z,45.34
2022-09-07T14:49:51.081Z,45.35
2022-09-07T14:50:10.694Z,45.36
2022-09-07T14:50:24.556Z,45.37
2022-09-07T14:50:39.174Z,45.36
2022-09-07T14:51:18.487Z,45.36
2022-09-07T14:51:29.515Z,45.36
2022-09-07T14:51:35.719Z,45.38
2022-09-07T14:51:42.272Z,45.37
2022-09-07T14:51:58.081Z,45.37
2022-09-07T14:52:14.704Z,45.37
2022-09-07T14:52:29.458Z,45.37
2022-09-07T14:53:34.308Z,45.41
2022-09-07T14:53:34.703Z,45.38
2022-09-07T14:53:34.955Z,45.4
2022-09-07T14:53:35.136Z,45.39
2022-09-07T14:53:51.777Z,45.4
2022-09-07T14:54:06.140Z,45.41
2022-09-07T14:54:22.046Z,45.42
2022-09-07T14:54:40.212Z,45.44
2022-09-07T14:54:54.175Z,45.44
2022-09-07T14:55:10.685Z,45.43
2022-09-07T14:55:24.604Z,45.45
2022-09-07T14:55:41.641Z,45.44
2022-09-07T14:55:58.629Z,45.45
2022-09-07T14:56:13.884Z,45.45
2022-09-07T14:56:28.875Z,45.46
2022-09-07T14:56:48.351Z,45.49
2022-09-07T14:57:02.629Z,45.47
2022-09-07T14:57:17.134Z,45.48
2022-09-07T14:57:33.089Z,45.49
2022-09-07T14:57:49.195Z,45.49
2022-09-07T14:58:07.719Z,45.5
2022-09-07T14:58:21.320Z,45.51
2022-09-07T14:58:39.213Z,45.51
2022-09-07T14:58:55.584Z,45.51
2022-09-07T14:59:08.820Z,45.52
2022-09-07T14:59:25.060Z,45.54
2022-09-07T14:59:40.312Z,45.53
2022-09-07T15:00:13.151Z,45.55
2022-09-07T15:00:30.838Z,45.55
2022-09-07T15:00:44.953Z,45.55
2022-09-07T15:01:37.314Z,45.56
2022-09-07T15:01:39.123Z,45.57
2022-09-07T15:01:50.957Z,45.56
2022-09-07T15:02:04.228Z,45.58
2022-09-07T15:02:21.728Z,45.56
2022-09-07T15:02:36.454Z,45.59
2022-09-07T15:02:53.002Z,45.58
2022-09-07T15:03:08.889Z,45.58
2022-09-07T15:03:27.288Z,45.57
2022-09-07T15:03:41.152Z,45.59
2022-09-07T15:03:58.128Z,45.58
2022-09-07T15:04:14.220Z,45.59
2022-09-07T15:04:28.344Z,45.58
2022-09-07T15:04:45.832Z,45.59
2022-09-07T15:05:02.096Z,45.59
